Time;durP1;ratioP1;P1;durP2;ratioP2;P2;SDS_P1;SDS_P2;PMS_P1;PMS_P2;Temp;Humidity;BMP_temperature;BMP_pressure;BME280_temperature;BME280_humidity;BME280_pressure;Samples;Min_cycle;Max_cycle;Signal;HPM_P1;HPM_P2
2023/07/21 00:01:41;;;;;;;2.80;2.53;;;14.20;99.90;;;;;;5101276;28;20204;-81
2023/07/21 00:04:08;;;;;;;4.57;2.13;;;14.30;99.90;;;;;;5099917;28;20241;-84
2023/07/21 00:06:34;;;;;;;2.83;2.15;;;14.20;99.90;;;;;;5100166;28;20208;-83
2023/07/21 00:09:05;;;;;;;3.10;2.22;;;14.20;99.90;;;;;;5099820;28;20288;-82
2023/07/21 00:11:32;;;;;;;2.25;1.90;;;14.40;99.90;;;;;;5100428;28;20205;-86
2023/07/21 00:13:59;;;;;;;3.50;2.30;;;14.20;99.90;;;;;;5094197;28;20259;-82
2023/07/21 00:16:29;;;;;;;3.40;2.05;;;14.10;99.90;;;;;;5087200;28;20206;-86
2023/07/21 00:18:56;;;;;;;2.30;2.10;;;14.20;99.90;;;;;;5081988;28;20359;-79
2023/07/21 00:21:24;;;;;;;2.10;1.90;;;14.40;99.90;;;;;;5098741;28;20558;-86
2023/07/21 00:23:51;;;;;;;3.90;2.42;;;14.60;99.90;;;;;;5087909;28;20231;-82
2023/07/21 00:26:18;;;;;;;6.38;2.20;;;14.50;99.90;;;;;;5097982;28;20205;-82
2023/07/21 00:28:45;;;;;;;2.85;2.55;;;14.60;99.90;;;;;;5102184;28;20711;-84
2023/07/21 00:31:13;;;;;;;4.05;2.22;;;14.50;99.90;;;;;;5101608;28;20666;-79
2023/07/21 00:33:41;;;;;;;2.50;2.30;;;14.40;99.90;;;;;;5101120;28;20229;-80
2023/07/21 00:36:12;;;;;;;4.68;2.20;;;14.40;99.90;;;;;;5101227;28;20229;-79
2023/07/21 00:38:40;;;;;;;3.45;2.38;;;14.30;99.90;;;;;;5100903;28;20198;-82
2023/07/21 00:41:07;;;;;;;2.67;2.20;;;14.30;99.90;;;;;;5104242;28;20266;-81
2023/07/21 00:43:34;;;;;;;4.30;2.53;;;14.30;99.90;;;;;;5101534;28;20228;-82
2023/07/21 00:46:01;;;;;;;2.58;1.98;;;14.20;99.90;;;;;;5097762;28;20715;-80
2023/07/21 00:48:28;;;;;;;3.10;2.30;;;14.20;99.90;;;;;;5103588;28;20652;-83
2023/07/21 00:50:56;;;;;;;3.00;2.10;;;14.10;99.90;;;;;;5104028;28;20207;-83
2023/07/21 00:53:25;;;;;;;4.10;2.10;;;14.30;99.90;;;;;;5103313;28;20225;-82
2023/07/21 00:55:52;;;;;;;2.25;2.05;;;14.20;99.90;;;;;;5103595;28;20208;-86
2023/07/21 00:58:19;;;;;;;3.42;2.03;;;14.20;99.90;;;;;;5103728;28;20209;-83
2023/07/21 01:00:47;;;;;;;4.13;2.28;;;14.10;99.90;;;;;;5104042;28;20201;-83
2023/07/21 01:03:16;;;;;;;2.80;2.22;;;14.10;99.90;;;;;;5104611;28;20241;-84
2023/07/21 01:05:47;;;;;;;3.40;2.10;;;14.20;99.90;;;;;;5103803;28;20208;-81
2023/07/21 01:08:16;;;;;;;2.92;2.20;;;14.10;99.90;;;;;;5091940;28;20225;-79
2023/07/21 01:10:43;;;;;;;2.78;1.95;;;14.20;99.90;;;;;;5083485;28;20228;-83
2023/07/21 01:13:11;;;;;;;3.08;2.25;;;14.20;99.90;;;;;;5085011;28;20289;-81
2023/07/21 01:15:43;;;;;;;5.30;2.40;;;14.20;99.90;;;;;;5105061;28;20216;-83
2023/07/21 01:18:11;;;;;;;4.75;2.67;;;14.20;99.90;;;;;;5102209;28;20205;-81
2023/07/21 01:20:38;;;;;;;4.00;2.58;;;14.30;99.90;;;;;;5104100;28;20728;-80
2023/07/21 01:23:22;;;;;;;2.85;1.90;;;14.20;99.90;;;;;;5088571;28;20226;-83
2023/07/21 01:25:54;;;;;;;3.17;2.15;;;14.20;99.90;;;;;;5084237;28;20632;-85
2023/07/21 01:28:21;;;;;;;2.03;1.83;;;14.30;99.90;;;;;;5092033;28;20558;-80
2023/07/21 01:30:53;;;;;;;3.60;2.08;;;14.30;99.90;;;;;;5103673;28;20721;-79
2023/07/21 01:33:22;;;;;;;3.55;1.90;;;14.30;99.90;;;;;;5104080;28;20217;-83
2023/07/21 01:35:50;;;;;;;2.00;1.80;;;14.30;99.90;;;;;;5103366;28;20792;-86
2023/07/21 01:38:19;;;;;;;2.85;2.10;;;14.30;99.90;;;;;;5099126;28;20193;-82
2023/07/21 01:40:47;;;;;;;2.50;1.87;;;14.50;99.90;;;;;;5095213;28;20669;-86
2023/07/21 01:43:16;;;;;;;3.83;2.30;;;14.40;99.90;;;;;;5090673;28;20241;-86
2023/07/21 01:45:43;;;;;;;3.90;2.77;;;14.50;99.90;;;;;;5104256;28;20229;-79
2023/07/21 01:48:10;;;;;;;2.22;2.03;;;14.50;99.90;;;;;;5105460;28;20205;-84
2023/07/21 01:50:40;;;;;;;3.00;1.90;;;14.50;99.90;;;;;;5105807;28;20209;-80
2023/07/21 01:53:14;;;;;;;5.20;1.92;;;14.50;99.90;;;;;;5103970;28;20225;-81
2023/07/21 01:55:46;;;;;;;2.75;2.10;;;14.50;99.90;;;;;;5099340;28;20224;-81
2023/07/21 01:58:15;;;;;;;4.47;2.10;;;14.50;99.90;;;;;;5098575;28;20200;-82
2023/07/21 02:00:43;;;;;;;2.95;2.10;;;14.50;99.90;;;;;;5090358;28;20573;-79
2023/07/21 02:03:11;;;;;;;4.00;2.50;;;14.40;99.90;;;;;;5095760;28;20217;-85
2023/07/21 02:05:38;;;;;;;2.97;2.20;;;14.30;99.90;;;;;;5100858;28;20615;-82
2023/07/21 02:08:05;;;;;;;3.90;2.60;;;14.30;99.90;;;;;;5093735;28;20194;-84
2023/07/21 02:10:32;;;;;;;2.70;2.28;;;14.30;99.90;;;;;;5086185;28;20198;-83
2023/07/21 02:12:58;;;;;;;3.08;2.20;;;14.30;99.90;;;;;;5098850;28;20626;-81
2023/07/21 02:15:27;;;;;;;3.28;2.28;;;14.30;99.90;;;;;;5096752;28;20564;-81
2023/07/21 02:17:53;;;;;;;5.22;3.05;;;14.30;99.90;;;;;;5093468;28;20201;-82
2023/07/21 02:20:21;;;;;;;3.85;2.50;;;14.30;99.90;;;;;;5096785;28;20650;-80
2023/07/21 02:22:48;;;;;;;2.83;2.42;;;14.40;99.90;;;;;;5090455;28;20739;-82
2023/07/21 02:25:15;;;;;;;3.85;2.38;;;14.40;99.90;;;;;;5097085;28;20186;-85
2023/07/21 02:27:43;;;;;;;5.25;2.67;;;14.40;99.90;;;;;;5084128;28;20202;-84
2023/07/21 02:30:10;;;;;;;3.25;2.47;;;14.40;99.90;;;;;;5103650;28;20202;-81
2023/07/21 02:32:39;;;;;;;3.15;2.65;;;14.50;99.90;;;;;;5102359;28;20225;-85
2023/07/21 02:35:08;;;;;;;3.50;2.70;;;14.50;99.90;;;;;;5103147;28;20691;-84
2023/07/21 02:37:36;;;;;;;2.85;2.53;;;14.40;99.90;;;;;;5102734;28;20202;-81
2023/07/21 02:40:04;;;;;;;2.30;2.10;;;14.40;99.90;;;;;;5102353;28;20628;-82
2023/07/21 02:42:31;;;;;;;3.88;2.47;;;14.40;99.90;;;;;;5102935;28;20232;-82
2023/07/21 02:44:58;;;;;;;3.05;2.40;;;14.30;99.90;;;;;;5081417;28;20281;-84
2023/07/21 02:47:26;;;;;;;3.70;2.80;;;14.30;99.90;;;;;;5091944;28;20197;-81
2023/07/21 02:49:54;;;;;;;4.57;2.65;;;14.20;99.90;;;;;;5102972;28;20201;-79
2023/07/21 02:52:21;;;;;;;5.72;2.92;;;14.30;99.90;;;;;;5101764;28;20228;-82
2023/07/21 02:54:48;;;;;;;3.15;2.63;;;14.40;99.90;;;;;;5101528;28;20260;-85
2023/07/21 02:57:15;;;;;;;3.10;2.55;;;14.40;99.90;;;;;;5099320;28;20614;-81
2023/07/21 02:59:42;;;;;;;4.15;2.47;;;14.50;99.90;;;;;;5092264;28;20198;-82
2023/07/21 03:02:12;;;;;;;3.55;2.60;;;14.50;99.90;;;;;;5081051;28;20229;-82
2023/07/21 03:04:42;;;;;;;4.20;2.70;;;14.30;99.90;;;;;;5099041;28;20193;-84
2023/07/21 03:07:11;;;;;;;3.28;2.45;;;14.20;99.90;;;;;;5098102;28;20274;-84
2023/07/21 03:09:38;;;;;;;3.17;2.85;;;14.20;99.90;;;;;;5100765;28;20205;-80
2023/07/21 03:12:06;;;;;;;5.28;3.03;;;14.30;99.90;;;;;;5102061;28;20216;-83
2023/07/21 03:14:32;;;;;;;5.95;3.58;;;14.50;99.90;;;;;;5101743;28;20220;-80
2023/07/21 03:16:59;;;;;;;4.65;3.30;;;14.50;99.90;;;;;;5101347;28;20201;-84
2023/07/21 03:19:29;;;;;;;3.05;2.60;;;14.40;99.90;;;;;;5097773;28;20281;-81
2023/07/21 03:21:55;;;;;;;5.18;2.95;;;14.30;99.90;;;;;;5100170;28;20237;-83
2023/07/21 03:24:23;;;;;;;5.47;3.25;;;14.50;99.90;;;;;;5102152;28;20221;-79
2023/07/21 03:26:50;;;;;;;3.15;2.75;;;14.50;99.90;;;;;;5101664;28;20201;-80
2023/07/21 03:29:17;;;;;;;3.72;3.08;;;14.40;99.90;;;;;;5085658;28;20512;-83
2023/07/21 03:31:44;;;;;;;3.00;2.70;;;14.20;99.90;;;;;;5084127;28;20262;-81
2023/07/21 03:34:11;;;;;;;3.45;3.05;;;14.30;99.90;;;;;;5082963;28;20218;-80
2023/07/21 03:36:38;;;;;;;3.45;3.15;;;14.20;99.90;;;;;;5081341;28;20214;-82
2023/07/21 03:39:04;;;;;;;6.63;3.30;;;14.30;99.90;;;;;;5079993;28;20278;-81
2023/07/21 03:41:32;;;;;;;4.72;3.55;;;14.30;99.90;;;;;;5082763;28;20218;-82
2023/07/21 03:44:00;;;;;;;3.85;2.78;;;14.10;99.90;;;;;;5090945;28;20313;-81
2023/07/21 03:46:27;;;;;;;4.68;3.30;;;14.00;99.90;;;;;;5082934;28;20206;-81
2023/07/21 03:48:54;;;;;;;5.95;3.03;;;14.00;99.90;;;;;;5083835;28;20210;-80
2023/07/21 03:51:20;;;;;;;4.80;3.45;;;14.10;99.90;;;;;;5083700;28;20266;-86
2023/07/21 03:53:47;;;;;;;24.15;10.32;;;14.20;99.90;;;;;;5083217;28;20363;-82
2023/07/21 03:56:14;;;;;;;21.40;9.02;;;14.10;99.90;;;;;;5082404;28;20285;-83
2023/07/21 03:58:42;;;;;;;13.60;6.45;;;14.00;99.90;;;;;;5099976;28;20587;-82
2023/07/21 04:01:09;;;;;;;9.90;4.90;;;13.90;99.90;;;;;;5102771;28;20332;-83
2023/07/21 04:03:36;;;;;;;6.18;3.20;;;13.90;99.90;;;;;;5102587;28;20312;-81
2023/07/21 04:06:07;;;;;;;4.10;2.95;;;14.00;99.90;;;;;;5102660;28;20225;-83
2023/07/21 04:08:35;;;;;;;3.42;2.95;;;14.00;99.90;;;;;;5100511;28;20265;-80
2023/07/21 04:11:01;;;;;;;5.78;2.90;;;13.90;99.90;;;;;;5097102;28;20630;-82
2023/07/21 04:13:28;;;;;;;4.10;2.92;;;13.90;99.90;;;;;;5095470;28;20232;-80
2023/07/21 04:15:58;;;;;;;4.72;3.15;;;13.70;99.90;;;;;;5095067;28;20292;-83
2023/07/21 04:18:26;;;;;;;6.20;2.97;;;13.90;99.90;;;;;;5094759;28;20241;-86
2023/07/21 04:20:52;;;;;;;7.22;3.08;;;13.90;99.90;;;;;;5095113;28;20251;-84
2023/07/21 04:23:19;;;;;;;5.88;3.13;;;14.10;99.90;;;;;;5095441;28;20705;-81
2023/07/21 04:25:46;;;;;;;5.72;3.58;;;14.10;99.90;;;;;;5094914;28;20288;-83
2023/07/21 04:28:13;;;;;;;6.50;3.50;;;14.10;99.90;;;;;;5095891;28;20251;-80
2023/07/21 04:30:40;;;;;;;7.38;3.92;;;14.20;99.90;;;;;;5089266;28;20685;-81
2023/07/21 04:33:09;;;;;;;7.45;3.90;;;14.40;99.90;;;;;;5084739;28;20310;-81
2023/07/21 04:35:36;;;;;;;5.25;3.83;;;14.40;99.90;;;;;;5089164;28;20257;-80
2023/07/21 04:38:03;;;;;;;4.95;3.65;;;14.40;99.90;;;;;;5085632;28;20209;-81
2023/07/21 04:40:30;;;;;;;8.73;3.58;;;14.40;99.90;;;;;;5087128;28;20582;-80
2023/07/21 04:42:57;;;;;;;7.43;3.65;;;14.20;99.90;;;;;;5087325;28;20349;-81
2023/07/21 04:45:23;;;;;;;4.60;3.50;;;14.30;99.90;;;;;;5082129;28;20190;-80
2023/07/21 04:47:53;;;;;;;6.40;3.70;;;14.40;99.90;;;;;;5090020;28;20244;-80
2023/07/21 04:50:21;;;;;;;4.25;3.30;;;14.60;99.90;;;;;;5090009;28;20197;-80
2023/07/21 04:52:48;;;;;;;7.47;3.80;;;14.80;99.90;;;;;;5093439;28;20252;-80
2023/07/21 04:55:15;;;;;;;4.30;3.30;;;14.90;99.90;;;;;;5084555;28;20217;-80
2023/07/21 04:57:42;;;;;;;9.07;4.97;;;15.10;99.90;;;;;;5085954;28;20235;-83
2023/07/21 05:00:11;;;;;;;12.43;7.35;;;15.20;99.90;;;;;;5092261;28;20578;-83
2023/07/21 05:02:39;;;;;;;11.80;7.72;;;15.30;99.90;;;;;;5078674;28;20226;-84
2023/07/21 05:05:06;;;;;;;7.50;4.47;;;15.20;99.90;;;;;;5091662;28;20288;-83
2023/07/21 05:07:34;;;;;;;6.32;4.22;;;15.30;99.90;;;;;;5083639;28;20564;-80
2023/07/21 05:10:01;;;;;;;4.68;3.00;;;15.30;99.90;;;;;;5081064;28;20847;-80
2023/07/21 05:12:28;;;;;;;7.03;3.50;;;15.10;99.90;;;;;;5087340;28;20686;-82
2023/07/21 05:14:57;;;;;;;5.53;3.40;;;15.20;99.90;;;;;;5076904;28;20690;-81
2023/07/21 05:17:24;;;;;;;7.00;3.58;;;15.30;99.90;;;;;;5074090;28;20195;-81
2023/07/21 05:19:51;;;;;;;6.32;3.15;;;15.30;99.90;;;;;;5082844;28;20569;-81
2023/07/21 05:22:18;;;;;;;5.53;3.40;;;15.30;99.90;;;;;;5078936;28;20222;-81
2023/07/21 05:24:46;;;;;;;9.23;3.67;;;15.20;99.90;;;;;;5096618;28;20220;-81
2023/07/21 05:27:13;;;;;;;8.52;3.60;;;15.20;99.90;;;;;;5095218;28;20206;-80
2023/07/21 05:29:40;;;;;;;5.03;3.13;;;15.10;99.90;;;;;;5082739;28;20198;-81
2023/07/21 05:32:07;;;;;;;5.40;3.40;;;15.10;99.90;;;;;;5090918;28;20639;-82
2023/07/21 05:34:34;;;;;;;6.35;3.50;;;15.10;99.90;;;;;;5091548;28;20285;-80
2023/07/21 05:37:01;;;;;;;6.50;3.17;;;15.00;99.90;;;;;;5090327;28;20202;-81
2023/07/21 05:39:29;;;;;;;6.32;3.50;;;14.90;99.90;;;;;;5090409;28;20202;-82
2023/07/21 05:41:58;;;;;;;4.68;3.47;;;15.00;99.90;;;;;;5087829;28;20212;-80
2023/07/21 05:44:26;;;;;;;6.20;3.28;;;15.20;99.90;;;;;;5089358;28;20694;-83
2023/07/21 05:46:52;;;;;;;7.20;3.75;;;15.20;99.90;;;;;;5085304;28;20674;-80
2023/07/21 05:49:19;;;;;;;4.93;3.40;;;15.30;99.90;;;;;;5090205;28;20209;-82
2023/07/21 05:51:46;;;;;;;5.68;3.35;;;15.20;99.90;;;;;;5092471;28;20212;-83
2023/07/21 05:54:13;;;;;;;4.35;3.45;;;15.30;99.90;;;;;;5084453;28;20225;-80
2023/07/21 05:56:40;;;;;;;5.50;3.20;;;15.40;99.90;;;;;;5091717;28;20654;-83
2023/07/21 05:59:08;;;;;;;7.70;3.83;;;15.50;99.90;;;;;;5088613;28;20262;-82
2023/07/21 06:01:36;;;;;;;5.22;3.38;;;15.40;99.90;;;;;;5080052;28;20202;-82
2023/07/21 06:04:04;;;;;;;6.53;3.10;;;15.60;99.90;;;;;;5090344;28;20256;-82
2023/07/21 06:06:31;;;;;;;6.45;4.35;;;15.70;99.90;;;;;;5090698;28;20197;-80
2023/07/21 06:08:58;;;;;;;7.97;3.95;;;15.60;99.90;;;;;;5087981;28;20639;-85
2023/07/21 06:11:26;;;;;;;6.38;3.90;;;15.60;99.90;;;;;;5084653;28;20285;-80
2023/07/21 06:13:53;;;;;;;8.60;3.55;;;15.80;99.90;;;;;;5079418;28;20226;-80
2023/07/21 06:16:23;;;;;;;5.13;3.13;;;16.00;99.90;;;;;;5084856;28;20218;-85
2023/07/21 06:18:51;;;;;;;4.13;3.00;;;15.90;99.90;;;;;;5097063;28;20209;-82
2023/07/21 06:21:20;;;;;;;3.72;3.35;;;16.10;99.90;;;;;;5094568;28;20603;-80
2023/07/21 06:23:48;;;;;;;7.05;3.38;;;16.20;99.90;;;;;;5087515;28;20236;-83
2023/07/21 06:26:15;;;;;;;9.00;3.70;;;16.10;99.90;;;;;;5095754;28;20200;-86
2023/07/21 06:28:42;;;;;;;4.35;3.40;;;16.30;99.90;;;;;;5100211;28;20297;-80
2023/07/21 06:31:10;;;;;;;5.72;3.08;;;16.30;99.90;;;;;;5087542;28;20209;-84
2023/07/21 06:33:38;;;;;;;4.75;3.33;;;16.40;99.90;;;;;;5093715;28;20217;-82
2023/07/21 06:36:06;;;;;;;4.18;2.80;;;16.30;99.90;;;;;;5098279;28;20696;-82
2023/07/21 06:38:33;;;;;;;7.05;4.00;;;16.30;99.90;;;;;;5092039;28;20892;-80
2023/07/21 06:41:00;;;;;;;5.68;3.28;;;16.50;99.90;;;;;;5087641;28;20567;-82
2023/07/21 06:43:27;;;;;;;4.28;3.13;;;16.50;99.90;;;;;;5091399;28;20600;-84
2023/07/21 06:45:54;;;;;;;4.95;2.80;;;16.50;99.90;;;;;;5089239;28;20220;-83
2023/07/21 06:48:20;;;;;;;5.28;2.97;;;16.70;99.90;;;;;;5096074;28;20211;-82
2023/07/21 06:50:49;;;;;;;4.68;2.92;;;16.70;99.90;;;;;;5093207;28;20269;-83
2023/07/21 06:53:17;;;;;;;3.65;2.35;;;16.80;99.90;;;;;;5090296;28;20705;-81
2023/07/21 06:55:45;;;;;;;5.22;2.60;;;16.90;99.90;;;;;;5085527;28;20222;-80
2023/07/21 06:58:12;;;;;;;3.65;2.58;;;16.90;99.90;;;;;;5093038;28;20229;-85
2023/07/21 07:00:39;;;;;;;5.68;2.75;;;17.00;99.90;;;;;;5085882;28;20210;-82
2023/07/21 07:03:05;;;;;;;2.42;2.22;;;17.00;99.90;;;;;;5092832;28;20221;-81
2023/07/21 07:05:32;;;;;;;3.33;2.33;;;16.90;99.90;;;;;;5085758;28;20209;-82
2023/07/21 07:08:00;;;;;;;3.92;2.22;;;17.00;99.90;;;;;;5088360;28;20570;-81
2023/07/21 07:10:27;;;;;;;2.72;2.17;;;17.00;99.90;;;;;;5085479;28;20210;-80
2023/07/21 07:12:54;;;;;;;3.88;2.25;;;17.00;99.90;;;;;;5087102;28;20705;-84
2023/07/21 07:15:21;;;;;;;4.75;2.80;;;17.20;99.90;;;;;;5090703;28;20313;-82
2023/07/21 07:17:48;;;;;;;5.80;2.47;;;17.10;99.90;;;;;;5090114;28;20202;-81
2023/07/21 07:20:15;;;;;;;4.13;2.38;;;17.20;99.90;;;;;;5097081;28;20201;-83
2023/07/21 07:22:41;;;;;;;3.17;2.50;;;17.30;99.90;;;;;;5093024;28;20248;-81
2023/07/21 07:25:10;;;;;;;3.83;2.10;;;17.30;99.90;;;;;;5089330;28;20208;-84
2023/07/21 07:27:37;;;;;;;2.03;1.92;;;17.40;99.90;;;;;;5079104;28;20201;-82
2023/07/21 07:30:05;;;;;;;3.95;2.10;;;17.50;99.90;;;;;;5084531;28;20682;-81
2023/07/21 07:32:32;;;;;;;4.60;2.30;;;17.40;99.90;;;;;;5084693;28;20233;-81
2023/07/21 07:34:58;;;;;;;2.90;2.20;;;17.60;99.90;;;;;;5086137;28;20202;-82
2023/07/21 07:37:27;;;;;;;2.17;1.98;;;17.60;99.90;;;;;;5089566;28;20200;-84
2023/07/21 07:39:54;;;;;;;2.47;2.17;;;17.60;99.90;;;;;;5082942;28;20612;-80
2023/07/21 07:42:23;;;;;;;3.80;2.15;;;17.70;99.90;;;;;;5090675;28;20609;-83
2023/07/21 07:44:53;;;;;;;4.65;2.50;;;17.70;99.90;;;;;;5083247;28;20207;-80
2023/07/21 07:47:20;;;;;;;2.47;2.28;;;17.40;99.90;;;;;;5087024;28;20200;-82
2023/07/21 07:49:47;;;;;;;2.67;2.47;;;17.60;99.90;;;;;;5093360;28;20197;-81
2023/07/21 07:52:15;;;;;;;4.13;2.50;;;17.80;99.90;;;;;;5078827;28;20222;-84
2023/07/21 07:54:42;;;;;;;2.75;2.50;;;18.00;99.90;;;;;;5086111;28;20239;-81
2023/07/21 07:57:09;;;;;;;5.13;2.63;;;18.10;99.90;;;;;;5084103;28;20223;-81
2023/07/21 07:59:37;;;;;;;2.47;2.20;;;18.20;99.90;;;;;;5087644;28;20198;-81
2023/07/21 08:02:04;;;;;;;2.97;2.47;;;18.20;99.90;;;;;;5095665;28;20607;-81
2023/07/21 08:04:30;;;;;;;2.88;2.53;;;18.10;99.90;;;;;;5085475;28;20658;-81
2023/07/21 08:06:57;;;;;;;2.70;2.28;;;18.10;99.90;;;;;;5084597;28;20198;-82
2023/07/21 08:09:24;;;;;;;2.33;2.15;;;18.30;99.90;;;;;;5086523;28;20209;-82
2023/07/21 08:11:51;;;;;;;3.38;2.42;;;18.20;99.90;;;;;;5089966;28;20304;-79
2023/07/21 08:14:18;;;;;;;2.67;2.25;;;18.20;99.90;;;;;;5077402;28;20212;-80
2023/07/21 08:16:46;;;;;;;3.08;2.30;;;18.30;99.90;;;;;;5092050;28;20223;-81
2023/07/21 08:19:13;;;;;;;2.85;2.65;;;18.50;99.90;;;;;;5084047;28;20201;-80
2023/07/21 08:25:08;;;;;;;2.60;2.40;;;18.80;99.90;;;;;;5115711;28;20721;-85
2023/07/21 08:27:48;;;;;;;2.50;2.30;;;18.70;99.90;;;;;;5123453;28;20308;-85
2023/07/21 08:30:47;;;;;;;3.47;2.72;;;18.90;99.90;;;;;;5125744;28;20200;-86
2023/07/21 08:33:25;;;;;;;2.35;2.15;;;19.00;99.90;;;;;;5124393;28;20226;-85
2023/07/21 08:36:24;;;;;;;3.38;3.08;;;19.10;99.90;;;;;;5122397;28;20220;-86
2023/07/21 08:39:06;;;;;;;3.10;2.80;;;19.10;99.90;;;;;;5100366;28;20228;-85
2023/07/21 08:45:07;;;;;;;;;;;;;;;;;;;;;
2023/07/21 08:51:19;;;;;;;3.05;2.75;;;19.30;99.90;;;;;;5121079;28;20193;-87
2023/07/21 08:59:34;;;;;;;3.42;2.50;;;19.50;99.90;;;;;;5024926;22;20239;-87
2023/07/21 09:06:05;;;;;;;2.85;2.60;;;20.10;99.90;;;;;;5089425;22;20217;-89
2023/07/21 09:08:56;;;;;;;2.90;2.47;;;20.60;99.90;;;;;;5014900;28;20194;-87
2023/07/21 09:14:36;;;;;;;3.63;3.20;;;21.30;99.90;;;;;;5087806;28;20213;-89
2023/07/21 09:17:15;;;;;;;3.45;2.75;;;20.70;99.90;;;;;;5078800;28;20230;-85
2023/07/21 09:23:09;;;;;;;3.67;2.80;;;20.90;99.90;;;;;;5009056;28;20703;-89
2023/07/21 09:25:49;;;;;;;3.25;2.85;;;20.60;99.90;;;;;;5068462;28;20201;-88
2023/07/21 09:28:52;;;;;;;3.08;2.83;;;20.40;99.90;;;;;;5070529;28;20312;-88
2023/07/21 09:32:00;;;;;;;2.78;2.50;;;20.50;99.90;;;;;;5045708;28;20573;-88
2023/07/21 09:34:34;;;;;;;3.08;2.78;;;21.10;99.90;;;;;;5062525;28;20229;-88
2023/07/21 09:37:17;;;;;;;3.97;2.50;;;21.60;99.90;;;;;;5073381;28;20260;-87
2023/07/21 09:39:56;;;;;;;2.40;2.30;;;22.10;99.90;;;;;;5060759;28;20676;-87
2023/07/21 09:42:49;;;;;;;2.55;2.35;;;22.30;99.90;;;;;;5069274;28;20229;-88
2023/07/21 09:45:23;;;;;;;3.42;2.90;;;22.80;99.90;;;;;;5069704;28;20274;-87
2023/07/21 09:47:52;;;;;;;3.22;2.30;;;22.10;99.90;;;;;;5067001;28;20218;-88
2023/07/21 09:50:44;;;;;;;2.17;2.08;;;22.60;99.90;;;;;;5071014;28;20206;-88
2023/07/21 09:53:30;;;;;;;2.50;2.30;;;23.30;99.90;;;;;;5072427;28;20205;-89
2023/07/21 09:58:29;;;;;;;2.35;2.22;;;23.40;99.90;;;;;;5097974;22;20320;-80
2023/07/21 10:01:00;;;;;;;3.10;2.40;;;23.80;99.90;;;;;;5090225;28;20691;-81
2023/07/21 10:03:28;;;;;;;2.42;2.33;;;23.60;99.90;;;;;;5087747;28;20225;-82
2023/07/21 10:05:56;;;;;;;3.67;2.20;;;24.00;99.90;;;;;;5092243;28;20660;-81
2023/07/21 10:08:24;;;;;;;3.08;2.70;;;24.00;99.90;;;;;;5091719;28;20215;-82
2023/07/21 10:10:51;;;;;;;2.20;2.00;;;24.40;99.90;;;;;;5092705;28;20201;-83
2023/07/21 10:13:19;;;;;;;3.95;2.75;;;24.10;99.10;;;;;;5087472;28;20226;-82
2023/07/21 10:15:49;;;;;;;3.35;2.55;;;23.30;99.90;;;;;;5082396;28;20214;-84
2023/07/21 10:18:15;;;;;;;3.20;2.40;;;23.00;98.30;;;;;;5086879;28;20217;-80
2023/07/21 10:20:45;;;;;;;2.20;2.08;;;22.90;95.50;;;;;;5087628;28;20315;-80
2023/07/21 10:23:14;;;;;;;2.45;2.25;;;22.90;99.90;;;;;;5086583;28;20662;-80
2023/07/21 10:25:48;;;;;;;2.58;2.38;;;22.60;91.40;;;;;;5083827;28;20202;-82
2023/07/21 10:28:15;;;;;;;2.83;2.63;;;22.50;94.20;;;;;;5081820;28;20289;-83
2023/07/21 10:30:42;;;;;;;2.95;2.30;;;21.90;79.20;;;;;;5081259;28;20210;-81
2023/07/21 10:33:14;;;;;;;2.60;2.30;;;22.50;83.80;;;;;;5085495;28;20245;-82
2023/07/21 10:35:41;;;;;;;3.80;2.13;;;22.20;91.00;;;;;;5086638;28;20210;-80
2023/07/21 10:38:22;;;;;;;3.30;2.15;;;22.10;87.50;;;;;;5079883;28;20590;-80
2023/07/21 10:40:49;;;;;;;2.53;2.30;;;22.20;57.00;;;;;;5083948;28;20216;-80
2023/07/21 10:43:16;;;;;;;1.88;1.77;;;21.90;59.30;;;;;;5088049;28;20240;-83
2023/07/21 10:45:42;;;;;;;2.53;2.33;;;21.80;75.80;;;;;;5086211;28;20620;-82
2023/07/21 10:48:11;;;;;;;2.60;2.42;;;21.70;78.80;;;;;;5081161;28;20205;-81
2023/07/21 10:50:40;;;;;;;2.30;2.10;;;21.90;65.40;;;;;;5079276;28;20597;-84
2023/07/21 10:53:07;;;;;;;2.35;2.15;;;21.70;61.30;;;;;;5090807;28;20217;-81
2023/07/21 10:55:37;;;;;;;2.60;2.40;;;21.30;70.30;;;;;;5082570;28;20202;-83
2023/07/21 10:58:04;;;;;;;4.90;2.30;;;21.00;73.50;;;;;;5085416;28;20725;-80
2023/07/21 11:00:42;;;;;;;5.05;2.50;;;21.80;93.00;;;;;;5082911;28;20205;-82
2023/07/21 11:03:10;;;;;;;2.60;2.40;;;22.00;93.80;;;;;;5086410;28;20221;-80
2023/07/21 11:05:36;;;;;;;2.45;2.25;;;21.90;88.50;;;;;;5083155;28;20246;-81
2023/07/21 11:08:05;;;;;;;3.38;2.10;;;21.80;83.60;;;;;;5085617;28;20208;-80
2023/07/21 11:10:33;;;;;;;3.70;2.22;;;22.40;83.50;;;;;;5077415;28;20583;-80
2023/07/21 11:13:00;;;;;;;2.38;2.17;;;22.30;87.40;;;;;;5074501;28;20235;-81
2023/07/21 11:15:27;;;;;;;2.63;2.42;;;22.20;69.70;;;;;;5084839;28;20213;-81
2023/07/21 11:17:59;;;;;;;2.50;2.25;;;22.50;53.30;;;;;;5076609;28;20218;-81
2023/07/21 11:20:26;;;;;;;2.15;1.92;;;22.10;46.50;;;;;;5080130;28;20206;-81
2023/07/21 11:22:53;;;;;;;2.17;1.90;;;21.70;39.40;;;;;;5081576;28;20265;-82
2023/07/21 11:25:21;;;;;;;2.60;2.40;;;21.80;36.00;;;;;;5086435;28;20223;-81
2023/07/21 11:27:49;;;;;;;2.60;1.98;;;21.80;40.20;;;;;;5082056;28;20206;-80
2023/07/21 11:30:20;;;;;;;2.90;2.25;;;21.80;64.50;;;;;;5083837;28;20245;-80
2023/07/21 11:32:47;;;;;;;3.65;2.00;;;21.80;44.50;;;;;;5085913;28;20248;-81
2023/07/21 11:35:14;;;;;;;2.28;1.92;;;21.90;87.20;;;;;;5083152;28;20201;-81
2023/07/21 11:37:43;;;;;;;2.95;1.95;;;21.50;64.70;;;;;;5085417;28;20253;-80
2023/07/21 11:40:15;;;;;;;2.00;1.90;;;21.70;81.40;;;;;;5079787;28;20203;-82
2023/07/21 11:42:45;;;;;;;2.00;1.90;;;22.10;68.20;;;;;;5088296;28;20217;-80
2023/07/21 11:45:38;;;;;;;3.55;2.35;;;22.20;76.40;;;;;;5086421;28;20263;-80
2023/07/21 11:48:14;;;;;;;2.15;1.98;;;22.30;74.40;;;;;;5087157;28;20201;-82
2023/07/21 11:50:48;;;;;;;3.00;2.17;;;22.10;64.60;;;;;;5078580;28;20216;-82
2023/07/21 11:53:15;;;;;;;2.50;2.10;;;21.70;53.20;;;;;;5090189;28;20224;-80
2023/07/21 11:55:41;;;;;;;3.38;2.20;;;21.70;40.30;;;;;;5082336;28;20229;-80
2023/07/21 11:58:12;;;;;;;4.28;2.50;;;21.90;54.90;;;;;;5083932;28;20308;-82
2023/07/21 12:00:39;;;;;;;2.33;2.13;;;22.00;64.70;;;;;;5080120;28;20859;-82
2023/07/21 12:03:08;;;;;;;2.28;2.08;;;22.30;48.30;;;;;;5080568;28;20228;-80
2023/07/21 12:05:35;;;;;;;2.97;1.98;;;22.30;52.50;;;;;;5089438;28;20312;-82
2023/07/21 12:08:03;;;;;;;2.33;2.00;;;22.30;48.90;;;;;;5089744;28;20229;-81
2023/07/21 12:10:30;;;;;;;3.33;2.13;;;22.30;59.70;;;;;;5090543;28;20261;-81
2023/07/21 12:12:57;;;;;;;2.78;2.22;;;21.90;49.30;;;;;;5085063;28;20308;-82
2023/07/21 12:15:29;;;;;;;3.83;2.38;;;21.70;48.40;;;;;;5082517;28;20202;-81
2023/07/21 12:17:56;;;;;;;3.85;2.45;;;21.50;63.70;;;;;;5079571;28;20597;-80
2023/07/21 12:20:23;;;;;;;3.70;3.15;;;21.30;97.60;;;;;;5079879;28;20202;-83
2023/07/21 12:22:49;;;;;;;5.95;3.20;;;20.70;99.90;;;;;;5085215;28;20689;-81
2023/07/21 12:25:16;;;;;;;3.35;3.05;;;20.10;99.90;;;;;;5084107;28;20204;-81
2023/07/21 12:27:44;;;;;;;3.17;2.92;;;19.90;99.90;;;;;;5076171;28;20205;-80
2023/07/21 12:30:11;;;;;;;6.82;3.40;;;20.00;99.90;;;;;;5085464;28;20197;-80
2023/07/21 12:32:39;;;;;;;3.90;3.05;;;20.00;99.90;;;;;;5082695;28;20589;-80
2023/07/21 12:35:07;;;;;;;3.88;3.58;;;19.50;99.90;;;;;;5088539;28;20208;-80
2023/07/21 12:37:38;;;;;;;7.63;3.88;;;19.00;99.90;;;;;;5088308;28;20284;-82
2023/07/21 12:40:11;;;;;;;10.68;4.70;;;18.10;99.90;;;;;;5093296;28;20251;-80
2023/07/21 12:42:39;;;;;;;7.40;4.53;;;17.30;99.90;;;;;;5085347;28;20234;-82
2023/07/21 12:45:07;;;;;;;8.10;4.47;;;16.60;99.90;;;;;;5092294;28;20210;-80
2023/07/21 12:47:34;;;;;;;7.97;4.30;;;16.30;99.90;;;;;;5085865;28;20189;-80
2023/07/21 12:50:03;;;;;;;6.63;5.05;;;16.50;99.90;;;;;;5085197;28;20654;-81
2023/07/21 12:52:30;;;;;;;7.43;4.72;;;16.50;99.90;;;;;;5089606;28;20232;-83
2023/07/21 12:54:56;;;;;;;8.90;4.82;;;16.40;99.90;;;;;;5083243;28;20575;-82
2023/07/21 12:57:23;;;;;;;6.38;4.45;;;16.60;99.90;;;;;;5090860;28;20229;-83
2023/07/21 12:59:50;;;;;;;5.82;3.97;;;16.50;99.90;;;;;;5090702;28;20186;-81
2023/07/21 13:02:17;;;;;;;4.35;3.88;;;16.40;99.90;;;;;;5091237;28;20213;-81
2023/07/21 13:04:44;;;;;;;4.38;3.88;;;16.40;99.90;;;;;;5087795;28;20212;-81
2023/07/21 13:07:12;;;;;;;3.85;3.53;;;16.50;99.90;;;;;;5083226;28;20680;-80
2023/07/21 13:09:39;;;;;;;5.00;3.72;;;16.50;99.90;;;;;;5089719;28;20205;-82
2023/07/21 13:12:07;;;;;;;5.30;3.55;;;16.40;99.90;;;;;;5087514;28;20244;-81
2023/07/21 13:14:34;;;;;;;4.10;3.28;;;16.60;99.90;;;;;;5085741;28;20606;-80
2023/07/21 13:17:03;;;;;;;3.67;3.38;;;16.80;99.90;;;;;;5089338;28;20209;-80
2023/07/21 13:19:30;;;;;;;4.40;4.00;;;16.90;99.90;;;;;;5088209;28;20206;-80
2023/07/21 13:21:57;;;;;;;4.28;3.88;;;16.90;99.90;;;;;;5091525;28;20217;-80
2023/07/21 13:24:25;;;;;;;6.03;4.32;;;17.00;99.90;;;;;;5086958;28;20217;-81
2023/07/21 13:26:53;;;;;;;4.30;3.65;;;17.20;99.90;;;;;;5089979;28;20316;-80